createdAt,value
2022-09-04T00:02:39.814Z,95456.81
2022-09-04T00:05:49.230Z,95457.13
2022-09-04T00:09:09.081Z,95459.63
2022-09-04T00:12:12.523Z,95462.31
2022-09-04T00:15:22.283Z,95461.84
2022-09-04T00:18:32.143Z,95469.56
2022-09-04T00:21:39.914Z,95468.13
2022-09-04T00:24:48.691Z,95467.97
2022-09-04T00:27:59.719Z,95470.16
2022-09-04T00:31:14.206Z,95461.34
2022-09-04T00:34:33.136Z,95475.00
2022-09-04T00:37:40.383Z,95479.09
2022-09-04T00:40:45.762Z,95478.09
2022-09-04T00:44:08.869Z,95469.97
2022-09-04T00:47:31.096Z,95472.06
2022-09-04T00:50:54.927Z,95477.47
2022-09-04T00:54:25.422Z,95469.78
2022-09-04T00:57:52.363Z,95463.13
2022-09-04T01:00:59.872Z,95468.03
2022-09-04T01:04:22.818Z,95469.75
2022-09-04T01:07:43.117Z,95473.28
2022-09-04T01:11:01.159Z,95467.56
2022-09-04T01:14:13.431Z,95473.69
2022-09-04T01:17:27.766Z,95476.00
2022-09-04T01:20:48.743Z,95465.03
2022-09-04T01:24:19.218Z,95469.94
2022-09-04T01:27:28.044Z,95471.53
2022-09-04T01:30:36.042Z,95466.84
2022-09-04T01:33:47.525Z,95467.94
2022-09-04T01:36:57.506Z,95454.09
2022-09-04T01:40:10.334Z,95447.97
2022-09-04T01:43:18.679Z,95445.59
2022-09-04T01:46:53.331Z,95452.81
2022-09-04T01:50:04.216Z,95445.59
2022-09-04T01:53:13.380Z,95445.75
2022-09-04T01:56:21.888Z,95446.88
2022-09-04T01:59:30.050Z,95439.50
2022-09-04T02:02:42.456Z,95444.34
2022-09-04T02:06:01.762Z,95448.13
2022-09-04T02:09:15.545Z,95442.16
2022-09-04T02:12:30.875Z,95447.97
2022-09-04T02:15:43.216Z,95438.72
2022-09-04T02:18:55.488Z,95436.34
2022-09-04T02:22:05.255Z,95444.06
2022-09-04T02:25:18.425Z,95438.41
2022-09-04T02:28:34.647Z,95434.94
2022-09-04T02:31:49.336Z,95436.50
2022-09-04T02:35:00.853Z,95426.91
2022-09-04T02:38:16.153Z,95422.38
2022-09-04T02:41:27.373Z,95425.34
2022-09-04T02:44:43.478Z,95423.94
2022-09-04T02:47:53.215Z,95433.34
2022-09-04T02:51:14.028Z,95431.63
2022-09-04T02:54:31.399Z,95449.53
2022-09-04T02:57:50.416Z,95450.22
2022-09-04T03:01:04.323Z,95455.97
2022-09-04T03:04:15.266Z,95446.28
2022-09-04T03:07:26.775Z,95454.59
2022-09-04T03:10:34.701Z,95461.56
2022-09-04T03:13:48.222Z,95469.41
2022-09-04T03:16:57.084Z,95465.09
2022-09-04T03:20:06.350Z,95464.13
2022-09-04T03:23:17.103Z,95464.44
2022-09-04T03:26:24.584Z,95459.88
2022-09-04T03:29:36.148Z,95459.56
2022-09-04T03:32:48.157Z,95453.88
2022-09-04T03:36:01.826Z,95456.88
2022-09-04T03:39:14.388Z,95453.91
2022-09-04T03:42:34.291Z,95469.25
2022-09-04T03:45:50.567Z,95466.28
2022-09-04T03:49:08.093Z,95464.41
2022-09-04T03:52:21.471Z,95478.41
2022-09-04T03:55:58.068Z,95492.66
2022-09-04T03:59:05.610Z,95497.69
2022-09-04T04:02:17.133Z,95494.03
2022-09-04T04:05:27.779Z,95501.94
2022-09-04T04:08:47.746Z,95499.97
2022-09-04T04:12:19.131Z,95503.44
2022-09-04T04:15:32.150Z,95519.22
2022-09-04T04:18:59.986Z,95532.81
2022-09-04T04:22:28.948Z,95535.53
2022-09-04T04:25:52.604Z,95537.25
2022-09-04T04:29:16.411Z,95539.81
2022-09-04T04:32:42.143Z,95543.97
2022-09-04T04:35:54.855Z,95550.59
2022-09-04T04:39:20.095Z,95553.75
2022-09-04T04:42:31.516Z,95559.94
2022-09-04T04:45:52.189Z,95567.28
2022-09-04T04:49:26.283Z,95558.38
2022-09-04T04:52:42.179Z,95553.25
2022-09-04T04:55:53.294Z,95544.88
2022-09-04T04:59:23.426Z,95553.53
2022-09-04T05:02:32.819Z,95560.31
2022-09-04T05:05:56.100Z,95568.25
2022-09-04T05:09:06.553Z,95569.75
2022-09-04T05:12:17.843Z,95557.69
2022-09-04T05:15:35.999Z,95549.97
2022-09-04T05:18:54.127Z,95532.13
2022-09-04T05:22:06.517Z,95546.47
2022-09-04T05:25:14.767Z,95555.63
2022-09-04T05:28:26.831Z,95560.81
2022-09-04T05:31:42.124Z,95565.25
2022-09-04T05:35:03.496Z,95559.91
2022-09-04T05:38:12.120Z,95555.53
2022-09-04T05:41:25.701Z,95549.94
2022-09-04T05:44:39.212Z,95549.53
2022-09-04T05:47:56.125Z,95569.09
2022-09-04T05:51:16.031Z,95562.59
2022-09-04T05:54:54.920Z,95561.88
2022-09-04T05:58:12.200Z,95561.22
2022-09-04T06:01:29.368Z,95562.44
2022-09-04T06:04:55.768Z,95562.84
2022-09-04T06:08:08.347Z,95543.97
2022-09-04T06:11:35.373Z,95544.09
2022-09-04T06:15:04.464Z,95542.09
2022-09-04T06:18:24.724Z,95543.69
2022-09-04T06:22:06.445Z,95548.72
2022-09-04T06:25:47.883Z,95543.78
2022-09-04T06:29:06.693Z,95547.97
2022-09-04T06:32:52.209Z,95546.66
2022-09-04T06:36:15.174Z,95549.03
2022-09-04T06:39:42.537Z,95545.59
2022-09-04T06:43:01.029Z,95545.66
2022-09-04T06:46:16.881Z,95549.44
2022-09-04T06:49:34.934Z,95546.25
2022-09-04T06:52:47.398Z,95552.03
2022-09-04T06:56:04.596Z,95564.28
2022-09-04T06:59:31.399Z,95564.50
2022-09-04T07:02:59.948Z,95559.34
2022-09-04T07:06:11.971Z,95555.63
2022-09-04T07:09:20.304Z,95545.25
2022-09-04T07:12:50.857Z,95546.72
2022-09-04T07:16:14.222Z,95547.31
2022-09-04T07:19:43.674Z,95549.25
2022-09-04T07:23:03.998Z,95554.91
2022-09-04T07:26:18.824Z,95551.63
2022-09-04T07:29:34.909Z,95540.63
2022-09-04T07:32:43.395Z,95539.53
2022-09-04T07:35:55.519Z,95541.53
2022-09-04T07:39:06.185Z,95538.31
2022-09-04T07:42:15.842Z,95545.94
2022-09-04T07:45:32.546Z,95553.44
2022-09-04T07:48:40.346Z,95561.16
2022-09-04T07:51:47.917Z,95570.38
2022-09-04T07:55:08.972Z,95567.91
2022-09-04T07:58:34.044Z,95565.59
2022-09-04T08:01:57.662Z,95562.91
2022-09-04T08:05:25.313Z,95561.34
2022-09-04T08:08:58.433Z,95568.44
2022-09-04T08:12:22.809Z,95568.59
2022-09-04T08:15:42.730Z,95575.72
2022-09-04T08:19:10.455Z,95577.41
2022-09-04T08:22:28.453Z,95574.31
2022-09-04T08:25:45.160Z,95572.78
2022-09-04T08:29:11.819Z,95577.09
2022-09-04T08:32:32.528Z,95577.88
2022-09-04T08:35:53.803Z,95581.81
2022-09-04T08:39:07.649Z,95564.66
2022-09-04T08:42:35.787Z,95569.38
2022-09-04T08:46:03.470Z,95562.94
2022-09-04T08:49:38.264Z,95564.50
2022-09-04T08:53:10.613Z,95559.66
2022-09-04T08:56:27.547Z,95562.84
2022-09-04T08:59:52.311Z,95554.03
2022-09-04T09:03:39.422Z,95548.06
2022-09-04T09:07:09.169Z,95546.16
2022-09-04T09:10:39.141Z,95545.53
2022-09-04T09:14:07.777Z,95542.84
2022-09-04T09:17:18.826Z,95552.47
2022-09-04T09:20:37.867Z,95545.22
2022-09-04T09:24:10.497Z,95538.78
2022-09-04T09:27:50.068Z,95537.66
2022-09-04T09:31:30.151Z,95532.78
2022-09-04T09:35:03.346Z,95529.78
2022-09-04T09:38:39.017Z,95528.69
2022-09-04T09:42:38.150Z,95525.22
2022-09-04T09:46:20.234Z,95520.38
2022-09-04T09:50:00.147Z,95523.06
2022-09-04T09:53:42.780Z,95518.19
2022-09-04T09:57:35.192Z,95515.50
2022-09-04T10:00:49.171Z,95504.00
2022-09-04T10:04:40.157Z,95491.72
2022-09-04T10:08:05.314Z,95494.09
2022-09-04T10:11:40.881Z,95505.56
2022-09-04T10:15:09.647Z,95505.09
2022-09-04T10:18:33.398Z,95498.97
2022-09-04T10:22:10.361Z,95493.09
2022-09-04T10:25:50.073Z,95476.25
2022-09-04T10:29:29.801Z,95472.47
2022-09-04T10:32:59.204Z,95477.84
2022-09-04T10:36:14.908Z,95473.25
2022-09-04T10:39:44.583Z,95477.03
2022-09-04T10:43:02.095Z,95469.31
2022-09-04T10:46:22.618Z,95477.03
2022-09-04T10:49:59.769Z,95476.88
2022-09-04T10:53:21.279Z,95468.06
2022-09-04T10:56:30.137Z,95462.72
2022-09-04T11:00:00.668Z,95464.13
2022-09-04T11:03:44.976Z,95461.94
2022-09-04T11:07:19.170Z,95451.22
2022-09-04T11:10:31.972Z,95431.53
2022-09-04T11:14:06.624Z,95438.47
2022-09-04T11:17:48.419Z,95440.34
2022-09-04T11:21:27.412Z,95434.69
2022-09-04T11:25:19.139Z,95427.75
2022-09-04T11:29:03.867Z,95435.78
2022-09-04T11:32:21.214Z,95423.97
2022-09-04T11:35:53.806Z,95430.13
2022-09-04T11:39:30.195Z,95440.34
2022-09-04T11:42:47.184Z,95419.25
2022-09-04T11:46:15.051Z,95410.91
2022-09-04T11:49:44.190Z,95408.84
2022-09-04T11:53:03.035Z,95422.72
2022-09-04T11:56:38.536Z,95412.78
2022-09-04T12:00:07.172Z,95411.53
2022-09-04T12:04:03.736Z,95403.66
2022-09-04T12:07:25.824Z,95395.63
2022-09-04T12:10:49.739Z,95391.97
2022-09-04T12:14:10.164Z,95395.16
2022-09-04T12:17:49.244Z,95391.38
2022-09-04T12:21:12.371Z,95386.97
2022-09-04T12:24:47.159Z,95383.81
2022-09-04T12:28:25.045Z,95390.00
2022-09-04T12:31:49.323Z,95378.78
2022-09-04T12:35:33.792Z,95379.84
2022-09-04T12:39:00.505Z,95379.09
2022-09-04T12:42:12.545Z,95384.25
2022-09-04T12:45:25.921Z,95375.31
2022-09-04T12:48:37.013Z,95375.81
2022-09-04T12:51:50.316Z,95377.22
2022-09-04T12:55:04.211Z,95374.38
2022-09-04T12:58:22.405Z,95378.97
2022-09-04T13:01:37.245Z,95363.47
2022-09-04T13:04:57.447Z,95366.47
2022-09-04T13:08:11.207Z,95365.81
2022-09-04T13:11:29.628Z,95368.97
2022-09-04T13:15:00.330Z,95372.78
2022-09-04T13:18:33.359Z,95366.63
2022-09-04T13:21:57.333Z,95365.25
2022-09-04T13:25:13.348Z,95371.41
2022-09-04T13:28:35.731Z,95375.94
2022-09-04T13:32:04.952Z,95376.72
2022-09-04T13:35:19.858Z,95382.56
2022-09-04T13:39:02.841Z,95382.09
2022-09-04T13:42:29.499Z,95377.06
2022-09-04T13:45:35.992Z,95375.63
2022-09-04T13:48:44.189Z,95386.81
2022-09-04T13:51:52.926Z,95388.53
2022-09-04T13:55:03.804Z,95386.03
2022-09-04T13:58:11.727Z,95385.56
2022-09-04T14:01:17.746Z,95392.16
2022-09-04T14:04:26.708Z,95394.38
2022-09-04T14:07:34.006Z,95390.75
2022-09-04T14:10:55.799Z,95386.34
2022-09-04T14:14:24.235Z,95388.38
2022-09-04T14:17:38.132Z,95391.84
2022-09-04T14:21:01.003Z,95392.16
2022-09-04T14:24:11.624Z,95398.16
2022-09-04T14:27:25.860Z,95394.84
2022-09-04T14:30:31.599Z,95392.03
2022-09-04T14:33:43.690Z,95387.78
2022-09-04T14:36:57.291Z,95390.44
2022-09-04T14:40:06.097Z,95392.94
2022-09-04T14:43:22.389Z,95400.19
2022-09-04T14:46:33.352Z,95404.16
2022-09-04T14:49:47.407Z,95403.38
2022-09-04T14:52:56.939Z,95404.47
2022-09-04T14:56:18.834Z,95400.69
2022-09-04T14:59:27.971Z,95396.84
2022-09-04T15:02:37.328Z,95395.50
2022-09-04T15:05:48.244Z,95388.81
2022-09-04T15:08:53.937Z,95399.88
2022-09-04T15:12:24.115Z,95402.72
2022-09-04T15:15:32.389Z,95398.00
2022-09-04T15:18:43.861Z,95408.81
2022-09-04T15:21:56.346Z,95411.81
2022-09-04T15:25:06.013Z,95414.31
2022-09-04T15:28:17.218Z,95425.97
2022-09-04T15:31:29.596Z,95426.75
2022-09-04T15:34:33.886Z,95427.22
2022-09-04T15:37:37.374Z,95411.19
2022-09-04T15:41:15.137Z,95415.94
2022-09-04T15:44:21.648Z,95416.25
2022-09-04T15:47:47.948Z,95419.19
2022-09-04T15:51:19.069Z,95424.41
2022-09-04T15:54:52.022Z,95427.53
2022-09-04T15:58:04.875Z,95418.72
2022-09-04T16:01:16.790Z,95418.84
2022-09-04T16:04:33.964Z,95417.91
2022-09-04T16:07:46.699Z,95435.84
2022-09-04T16:11:01.608Z,95433.97
2022-09-04T16:14:09.861Z,95438.84
2022-09-04T16:17:20.265Z,95439.63
2022-09-04T16:20:33.489Z,95441.25
2022-09-04T16:23:39.572Z,95437.00
2022-09-04T16:26:46.844Z,95452.88
2022-09-04T16:29:56.811Z,95457.13
2022-09-04T16:33:01.064Z,95461.88
2022-09-04T16:36:07.850Z,95466.59
2022-09-04T16:39:20.744Z,95471.31
2022-09-04T16:42:29.764Z,95478.06
2022-09-04T16:45:41.456Z,95486.41
2022-09-04T16:48:51.833Z,95482.28
2022-09-04T16:52:01.750Z,95489.19
2022-09-04T16:55:11.548Z,95488.25
2022-09-04T16:58:35.044Z,95494.19
2022-09-04T17:01:48.897Z,95500.53
2022-09-04T17:04:58.574Z,95505.47
2022-09-04T17:08:12.032Z,95509.56
2022-09-04T17:11:22.273Z,95508.63
2022-09-04T17:14:35.096Z,95511.50
2022-09-04T17:17:43.506Z,95515.25
2022-09-04T17:22:28.137Z,95509.91
2022-09-04T17:29:08.417Z,95520.81
2022-09-04T17:29:09.738Z,95513.09
2022-09-04T17:31:29.613Z,95533.41
2022-09-04T17:40:42.427Z,95541.44
2022-09-04T17:40:49.878Z,95536.25
2022-09-04T17:42:06.585Z,95542.38
2022-09-04T17:45:22.437Z,95541.44
2022-09-04T17:48:31.492Z,95547.38
2022-09-04T17:51:36.260Z,95557.00
2022-09-04T17:54:42.562Z,95561.75
2022-09-04T17:57:57.782Z,95567.47
2022-09-04T18:01:15.138Z,95572.97
2022-09-04T18:04:27.492Z,95575.03
2022-09-04T18:08:08.465Z,95577.09
2022-09-04T18:11:03.984Z,95580.56
2022-09-04T18:14:14.421Z,95589.53
2022-09-04T18:17:21.938Z,95596.16
2022-09-04T18:20:37.899Z,95590.16
2022-09-04T18:23:51.686Z,95595.19
2022-09-04T18:27:00.081Z,95594.09
2022-09-04T18:31:48.264Z,95594.41
2022-09-04T18:37:26.208Z,95595.28
2022-09-04T18:37:43.999Z,95593.25
2022-09-04T18:41:22.196Z,95591.56
2022-09-04T18:50:22.758Z,95594.72
2022-09-04T18:50:43.481Z,95596.59
2022-09-04T18:51:20.728Z,95601.16
2022-09-04T18:54:30.336Z,95590.47
2022-09-04T18:57:39.431Z,95593.44
2022-09-04T19:00:53.151Z,95588.09
2022-09-04T19:03:58.094Z,95590.78
2022-09-04T19:07:07.779Z,95593.13
2022-09-04T19:10:18.930Z,95590.00
2022-09-04T19:13:28.443Z,95591.25
2022-09-04T19:16:38.502Z,95584.63
2022-09-04T19:19:49.976Z,95590.09
2022-09-04T19:23:00.061Z,95583.25
2022-09-04T19:26:13.146Z,95581.88
2022-09-04T19:29:23.470Z,95591.19
2022-09-04T19:32:29.910Z,95584.72
2022-09-04T19:35:38.750Z,95586.63
2022-09-04T19:45:36.221Z,95585.22
2022-09-04T19:46:09.033Z,95595.91
2022-09-04T19:46:26.431Z,95595.91
2022-09-04T19:51:42.425Z,95597.31
2022-09-04T19:53:31.575Z,95604.66
2022-09-04T19:56:27.606Z,95604.09
2022-09-04T19:59:36.582Z,95609.72
2022-09-04T20:02:51.090Z,95606.78
2022-09-04T20:06:00.686Z,95608.81
2022-09-04T20:09:29.174Z,95605.03
2022-09-04T20:12:36.713Z,95610.41
2022-09-04T20:15:47.155Z,95607.41
2022-09-04T20:18:58.047Z,95617.97
2022-09-04T20:22:03.736Z,95613.97
2022-09-04T20:25:36.854Z,95616.78
2022-09-04T20:28:52.117Z,95620.06
2022-09-04T20:32:01.118Z,95619.59
2022-09-04T20:35:13.436Z,95616.06
2022-09-04T20:38:23.837Z,95615.16
2022-09-04T20:41:33.744Z,95613.28
2022-09-04T20:45:44.151Z,95607.13
2022-09-04T20:52:44.314Z,95610.91
2022-09-04T20:52:51.139Z,95608.53
2022-09-04T20:55:26.175Z,95615.28
2022-09-04T21:01:55.002Z,95608.47
2022-09-04T21:03:22.522Z,95605.81
2022-09-04T21:06:01.219Z,95602.97
2022-09-04T21:09:54.886Z,95610.38
2022-09-04T21:13:13.336Z,95611.00
2022-09-04T21:16:31.014Z,95609.09
2022-09-04T21:19:57.395Z,95607.63
2022-09-04T21:23:20.132Z,95602.13
2022-09-04T21:26:39.793Z,95612.81
2022-09-04T21:30:01.457Z,95605.47
2022-09-04T21:33:28.143Z,95605.28
2022-09-04T21:36:40.802Z,95606.19
2022-09-04T21:40:51.121Z,95607.91
2022-09-04T21:44:12.405Z,95618.59
2022-09-04T21:47:31.609Z,95626.94
2022-09-04T21:50:51.273Z,95629.31
2022-09-04T21:54:38.151Z,95626.63
2022-09-04T22:02:36.669Z,95632.16
2022-09-04T22:02:45.248Z,95635.06
2022-09-04T22:05:23.195Z,95630.22
2022-09-04T22:13:26.170Z,95630.09
2022-09-04T22:13:40.215Z,95634.03
2022-09-04T22:15:38.811Z,95630.75
2022-09-04T22:18:56.624Z,95628.38
2022-09-04T22:22:09.378Z,95635.63
2022-09-04T22:25:46.211Z,95630.25
2022-09-04T22:29:07.445Z,95639.38
2022-09-04T22:32:50.723Z,95634.03
2022-09-04T22:36:30.353Z,95628.81
2022-09-04T22:40:02.883Z,95635.28
2022-09-04T22:43:16.703Z,95627.72
2022-09-04T22:46:43.890Z,95627.56
2022-09-04T22:50:07.375Z,95629.91
2022-09-04T22:53:36.598Z,95635.75
2022-09-04T22:56:53.711Z,95636.38
2022-09-04T23:00:11.739Z,95644.97
2022-09-04T23:03:39.431Z,95644.75
2022-09-04T23:13:42.273Z,95643.47
2022-09-04T23:13:57.992Z,95646.75
2022-09-04T23:14:27.010Z,95641.00
2022-09-04T23:17:54.942Z,95640.69
2022-09-04T23:26:36.461Z,95634.19
2022-09-04T23:26:53.816Z,95641.13
2022-09-04T23:28:48.261Z,95639.72
2022-09-04T23:32:13.347Z,95631.44
2022-09-04T23:35:36.036Z,95638.84
2022-09-04T23:39:18.896Z,95642.00
2022-09-04T23:43:00.617Z,95640.31
2022-09-04T23:46:33.000Z,95644.59
2022-09-04T23:49:54.256Z,95647.25
2022-09-04T23:53:09.460Z,95642.78
2022-09-04T23:56:21.439Z,95647.84
2022-09-04T23:59:38.029Z,95641.94
